sensor_id;sensor_type;location;lat;lon;timestamp;temperature;humidity
1700;DHT22;847;48.058;7.810;2024-03-06T00:58:56;9.40;99.00
1700;DHT22;847;48.058;7.810;2024-03-06T01:55:50;8.30;99.00
1700;DHT22;847;48.058;7.810;2024-03-06T02:08:40;8.00;99.00
1700;DHT22;847;48.058;7.810;2024-03-06T02:16:19;8.30;99.00
1700;DHT22;847;48.058;7.810;2024-03-06T02:18:52;8.30;99.00
1700;DHT22;847;48.058;7.810;2024-03-06T02:21:21;8.40;99.00
1700;DHT22;847;48.058;7.810;2024-03-06T02:23:49;8.40;99.00
1700;DHT22;847;48.058;7.810;2024-03-06T02:26:20;8.30;99.00
1700;DHT22;847;48.058;7.810;2024-03-06T02:28:47;8.10;99.00
1700;DHT22;847;48.058;7.810;2024-03-06T02:36:28;7.90;99.00
1700;DHT22;847;48.058;7.810;2024-03-06T02:41:30;7.90;99.00
1700;DHT22;847;48.058;7.810;2024-03-06T02:44:01;8.00;99.00
1700;DHT22;847;48.058;7.810;2024-03-06T02:46:47;8.00;99.00
1700;DHT22;847;48.058;7.810;2024-03-06T02:51:53;8.10;99.00
1700;DHT22;847;48.058;7.810;2024-03-06T02:54:58;8.00;99.00
1700;DHT22;847;48.058;7.810;2024-03-06T02:57:43;8.10;99.00
1700;DHT22;847;48.058;7.810;2024-03-06T03:00:11;8.30;99.00
1700;DHT22;847;48.058;7.810;2024-03-06T03:02:39;8.30;99.00
1700;DHT22;847;48.058;7.810;2024-03-06T03:05:07;8.30;99.00
1700;DHT22;847;48.058;7.810;2024-03-06T03:08:06;8.20;99.00
1700;DHT22;847;48.058;7.810;2024-03-06T03:18:28;8.50;99.00
1700;DHT22;847;48.058;7.810;2024-03-06T03:20:55;8.50;99.00
1700;DHT22;847;48.058;7.810;2024-03-06T03:23:23;8.50;99.00
1700;DHT22;847;48.058;7.810;2024-03-06T03:25:50;8.40;99.00
1700;DHT22;847;48.058;7.810;2024-03-06T03:38:40;8.20;99.00
1700;DHT22;847;48.058;7.810;2024-03-06T03:54:22;8.00;99.00
1700;DHT22;847;48.058;7.810;2024-03-06T04:07:11;8.10;99.00
1700;DHT22;847;48.058;7.810;2024-03-06T04:09:40;8.10;99.00
1700;DHT22;847;48.058;7.810;2024-03-06T04:12:07;8.00;99.00
1700;DHT22;847;48.058;7.810;2024-03-06T04:19:45;8.00;99.00
1700;DHT22;847;48.058;7.810;2024-03-06T04:22:14;8.00;99.00
1700;DHT22;847;48.058;7.810;2024-03-06T04:24:42;8.00;99.00
1700;DHT22;847;48.058;7.810;2024-03-06T04:27:12;8.00;99.00
1700;DHT22;847;48.058;7.810;2024-03-06T04:32:17;7.90;99.00
1700;DHT22;847;48.058;7.810;2024-03-06T04:34:44;7.90;99.00
1700;DHT22;847;48.058;7.810;2024-03-06T04:39:49;7.90;99.00
1700;DHT22;847;48.058;7.810;2024-03-06T04:42:19;7.90;99.00
1700;DHT22;847;48.058;7.810;2024-03-06T04:50:43;7.80;99.00
1700;DHT22;847;48.058;7.810;2024-03-06T04:53:11;7.70;99.00
1700;DHT22;847;48.058;7.810;2024-03-06T04:55:41;7.80;99.00
1700;DHT22;847;48.058;7.810;2024-03-06T04:58:11;7.80;99.00
1700;DHT22;847;48.058;7.810;2024-03-06T05:00:38;7.80;99.00
1700;DHT22;847;48.058;7.810;2024-03-06T05:03:20;7.70;99.00
1700;DHT22;847;48.058;7.810;2024-03-06T05:06:07;7.60;99.00
1700;DHT22;847;48.058;7.810;2024-03-06T05:08:43;7.60;99.00
1700;DHT22;847;48.058;7.810;2024-03-06T05:11:28;7.70;99.00
1700;DHT22;847;48.058;7.810;2024-03-06T05:14:00;7.90;99.00
1700;DHT22;847;48.058;7.810;2024-03-06T05:16:28;7.90;99.00
1700;DHT22;847;48.058;7.810;2024-03-06T05:27:07;7.80;99.00
1700;DHT22;847;48.058;7.810;2024-03-06T05:29:35;7.80;99.00
1700;DHT22;847;48.058;7.810;2024-03-06T05:32:05;7.80;99.00
1700;DHT22;847;48.058;7.810;2024-03-06T05:34:33;7.90;99.00
1700;DHT22;847;48.058;7.810;2024-03-06T05:42:18;8.00;99.00
1700;DHT22;847;48.058;7.810;2024-03-06T05:47:47;8.10;99.00
1700;DHT22;847;48.058;7.810;2024-03-06T05:50:32;8.10;99.00
1700;DHT22;847;48.058;7.810;2024-03-06T05:53:06;8.10;99.00
1700;DHT22;847;48.058;7.810;2024-03-06T06:06:02;8.20;99.00
1700;DHT22;847;48.058;7.810;2024-03-06T06:08:29;8.20;99.00
1700;DHT22;847;48.058;7.810;2024-03-06T06:10:59;8.20;99.00
1700;DHT22;847;48.058;7.810;2024-03-06T06:13:29;8.20;99.00
1700;DHT22;847;48.058;7.810;2024-03-06T06:15:58;8.20;99.00
1700;DHT22;847;48.058;7.810;2024-03-06T06:18:24;8.10;99.00
1700;DHT22;847;48.058;7.810;2024-03-06T06:20:51;8.10;99.00
1700;DHT22;847;48.058;7.810;2024-03-06T06:23:19;8.10;99.00
1700;DHT22;847;48.058;7.810;2024-03-06T06:25:46;8.10;99.00
1700;DHT22;847;48.058;7.810;2024-03-06T06:28:13;8.10;99.00
1700;DHT22;847;48.058;7.810;2024-03-06T06:30:51;8.10;99.00
1700;DHT22;847;48.058;7.810;2024-03-06T06:33:19;8.10;99.00
1700;DHT22;847;48.058;7.810;2024-03-06T06:35:46;8.00;99.00
1700;DHT22;847;48.058;7.810;2024-03-06T06:38:14;8.00;99.00
1700;DHT22;847;48.058;7.810;2024-03-06T06:40:44;8.00;99.00
1700;DHT22;847;48.058;7.810;2024-03-06T06:43:11;8.00;99.00
1700;DHT22;847;48.058;7.810;2024-03-06T06:45:39;8.00;99.00
1700;DHT22;847;48.058;7.810;2024-03-06T06:48:06;8.00;99.00
1700;DHT22;847;48.058;7.810;2024-03-06T06:50:34;8.00;99.00
1700;DHT22;847;48.058;7.810;2024-03-06T06:53:03;8.00;99.00
1700;DHT22;847;48.058;7.810;2024-03-06T06:55:30;8.00;99.00
1700;DHT22;847;48.058;7.810;2024-03-06T06:57:59;8.00;99.00
1700;DHT22;847;48.058;7.810;2024-03-06T07:00:26;7.90;99.00
1700;DHT22;847;48.058;7.810;2024-03-06T07:02:56;7.90;99.00
1700;DHT22;847;48.058;7.810;2024-03-06T07:05:26;8.00;99.00
1700;DHT22;847;48.058;7.810;2024-03-06T07:07:56;7.90;99.00
1700;DHT22;847;48.058;7.810;2024-03-06T07:10:25;7.90;99.00
1700;DHT22;847;48.058;7.810;2024-03-06T07:12:54;7.90;99.00
1700;DHT22;847;48.058;7.810;2024-03-06T07:15:26;7.90;99.00
1700;DHT22;847;48.058;7.810;2024-03-06T07:17:54;7.90;99.00
1700;DHT22;847;48.058;7.810;2024-03-06T07:20:22;7.80;99.00
1700;DHT22;847;48.058;7.810;2024-03-06T07:22:50;7.70;99.00
1700;DHT22;847;48.058;7.810;2024-03-06T07:25:19;7.70;99.00
1700;DHT22;847;48.058;7.810;2024-03-06T07:27:47;7.60;99.00
1700;DHT22;847;48.058;7.810;2024-03-06T07:30:17;7.50;99.00
1700;DHT22;847;48.058;7.810;2024-03-06T07:32:47;7.50;99.00
1700;DHT22;847;48.058;7.810;2024-03-06T07:35:15;7.50;99.00
1700;DHT22;847;48.058;7.810;2024-03-06T07:37:44;7.60;99.00
1700;DHT22;847;48.058;7.810;2024-03-06T07:40:16;7.60;99.00
1700;DHT22;847;48.058;7.810;2024-03-06T07:42:44;7.60;99.00
1700;DHT22;847;48.058;7.810;2024-03-06T07:45:16;7.70;99.00
1700;DHT22;847;48.058;7.810;2024-03-06T07:47:48;7.70;99.00
1700;DHT22;847;48.058;7.810;2024-03-06T07:50:16;7.60;99.00
1700;DHT22;847;48.058;7.810;2024-03-06T07:52:45;7.60;99.00
1700;DHT22;847;48.058;7.810;2024-03-06T07:55:13;7.60;99.00
1700;DHT22;847;48.058;7.810;2024-03-06T07:57:41;7.60;99.00
1700;DHT22;847;48.058;7.810;2024-03-06T08:00:10;7.60;99.00
1700;DHT22;847;48.058;7.810;2024-03-06T08:02:49;7.60;99.00
1700;DHT22;847;48.058;7.810;2024-03-06T08:05:17;7.60;99.00
1700;DHT22;847;48.058;7.810;2024-03-06T08:07:49;7.60;99.00
1700;DHT22;847;48.058;7.810;2024-03-06T08:10:19;7.60;99.00
1700;DHT22;847;48.058;7.810;2024-03-06T08:12:46;7.60;99.00
1700;DHT22;847;48.058;7.810;2024-03-06T08:15:14;7.60;99.00
1700;DHT22;847;48.058;7.810;2024-03-06T08:17:42;7.60;99.00
1700;DHT22;847;48.058;7.810;2024-03-06T08:22:46;7.50;99.00
1700;DHT22;847;48.058;7.810;2024-03-06T08:25:14;7.50;99.00
1700;DHT22;847;48.058;7.810;2024-03-06T08:27:41;7.50;99.00
1700;DHT22;847;48.058;7.810;2024-03-06T08:32:44;7.50;99.00
1700;DHT22;847;48.058;7.810;2024-03-06T08:35:12;7.50;99.00
1700;DHT22;847;48.058;7.810;2024-03-06T08:37:39;7.40;99.00
1700;DHT22;847;48.058;7.810;2024-03-06T08:40:08;7.50;99.00
1700;DHT22;847;48.058;7.810;2024-03-06T08:42:40;7.50;99.00
1700;DHT22;847;48.058;7.810;2024-03-06T08:45:07;7.50;99.00
1700;DHT22;847;48.058;7.810;2024-03-06T08:58:23;7.50;99.00
1700;DHT22;847;48.058;7.810;2024-03-06T09:06:17;7.60;99.00
1700;DHT22;847;48.058;7.810;2024-03-06T09:08:46;7.60;99.00
1700;DHT22;847;48.058;7.810;2024-03-06T09:11:14;7.70;99.00
1700;DHT22;847;48.058;7.810;2024-03-06T09:13:42;7.70;99.00
1700;DHT22;847;48.058;7.810;2024-03-06T09:16:08;7.60;99.00
1700;DHT22;847;48.058;7.810;2024-03-06T09:18:36;7.60;99.00
1700;DHT22;847;48.058;7.810;2024-03-06T09:21:03;7.70;99.00
1700;DHT22;847;48.058;7.810;2024-03-06T09:23:30;7.60;99.00
1700;DHT22;847;48.058;7.810;2024-03-06T09:25:58;7.60;99.00
1700;DHT22;847;48.058;7.810;2024-03-06T09:28:25;7.60;99.00
1700;DHT22;847;48.058;7.810;2024-03-06T09:30:53;7.70;99.00
1700;DHT22;847;48.058;7.810;2024-03-06T09:33:20;7.80;99.00
1700;DHT22;847;48.058;7.810;2024-03-06T09:35:47;7.80;99.00
1700;DHT22;847;48.058;7.810;2024-03-06T09:38:14;7.80;99.00
1700;DHT22;847;48.058;7.810;2024-03-06T09:40:41;7.80;99.00
1700;DHT22;847;48.058;7.810;2024-03-06T09:43:08;7.70;99.00
1700;DHT22;847;48.058;7.810;2024-03-06T09:45:35;7.70;99.00
1700;DHT22;847;48.058;7.810;2024-03-06T09:48:05;7.80;99.00
1700;DHT22;847;48.058;7.810;2024-03-06T09:50:34;7.80;99.00
1700;DHT22;847;48.058;7.810;2024-03-06T09:53:04;7.80;99.00
1700;DHT22;847;48.058;7.810;2024-03-06T09:55:34;7.90;99.00
1700;DHT22;847;48.058;7.810;2024-03-06T09:58:04;7.90;99.00
1700;DHT22;847;48.058;7.810;2024-03-06T10:00:38;7.90;99.00
1700;DHT22;847;48.058;7.810;2024-03-06T10:03:11;7.90;99.00
1700;DHT22;847;48.058;7.810;2024-03-06T10:05:39;7.90;99.00
1700;DHT22;847;48.058;7.810;2024-03-06T10:08:10;8.00;99.00
1700;DHT22;847;48.058;7.810;2024-03-06T10:10:42;8.10;99.00
1700;DHT22;847;48.058;7.810;2024-03-06T10:13:09;8.00;99.00
1700;DHT22;847;48.058;7.810;2024-03-06T10:15:36;8.10;99.00
1700;DHT22;847;48.058;7.810;2024-03-06T10:18:16;8.10;99.00
1700;DHT22;847;48.058;7.810;2024-03-06T10:20:44;8.10;99.00
1700;DHT22;847;48.058;7.810;2024-03-06T10:23:13;8.10;99.00
1700;DHT22;847;48.058;7.810;2024-03-06T10:25:46;8.20;99.00
1700;DHT22;847;48.058;7.810;2024-03-06T10:28:18;8.20;99.00
1700;DHT22;847;48.058;7.810;2024-03-06T10:30:47;8.10;99.00
1700;DHT22;847;48.058;7.810;2024-03-06T10:33:18;8.00;99.00
1700;DHT22;847;48.058;7.810;2024-03-06T10:35:49;8.20;99.00
1700;DHT22;847;48.058;7.810;2024-03-06T10:38:24;8.20;99.00
1700;DHT22;847;48.058;7.810;2024-03-06T10:40:55;8.30;99.00
1700;DHT22;847;48.058;7.810;2024-03-06T10:43:23;8.40;99.00
1700;DHT22;847;48.058;7.810;2024-03-06T10:45:51;8.30;99.00
1700;DHT22;847;48.058;7.810;2024-03-06T10:48:19;8.10;99.00
1700;DHT22;847;48.058;7.810;2024-03-06T10:50:49;8.10;99.00
1700;DHT22;847;48.058;7.810;2024-03-06T10:53:17;8.10;99.00
1700;DHT22;847;48.058;7.810;2024-03-06T10:55:44;8.20;99.00
1700;DHT22;847;48.058;7.810;2024-03-06T10:58:12;8.20;99.00
1700;DHT22;847;48.058;7.810;2024-03-06T11:00:43;8.20;99.00
1700;DHT22;847;48.058;7.810;2024-03-06T11:03:12;8.20;99.00
1700;DHT22;847;48.058;7.810;2024-03-06T11:05:41;8.30;99.00
1700;DHT22;847;48.058;7.810;2024-03-06T11:08:10;8.20;99.00
1700;DHT22;847;48.058;7.810;2024-03-06T11:10:39;8.20;99.00
1700;DHT22;847;48.058;7.810;2024-03-06T11:13:09;8.20;99.00
1700;DHT22;847;48.058;7.810;2024-03-06T11:15:48;8.30;99.00
1700;DHT22;847;48.058;7.810;2024-03-06T11:18:40;8.30;99.00
1700;DHT22;847;48.058;7.810;2024-03-06T11:21:29;8.30;99.00
1700;DHT22;847;48.058;7.810;2024-03-06T11:24:16;8.30;99.00
1700;DHT22;847;48.058;7.810;2024-03-06T11:26:46;8.30;99.00
1700;DHT22;847;48.058;7.810;2024-03-06T11:29:16;8.40;99.00
1700;DHT22;847;48.058;7.810;2024-03-06T11:32:01;8.40;99.00
1700;DHT22;847;48.058;7.810;2024-03-06T11:34:29;8.50;99.00
1700;DHT22;847;48.058;7.810;2024-03-06T11:36:58;8.50;99.00
1700;DHT22;847;48.058;7.810;2024-03-06T11:39:28;8.50;99.00
1700;DHT22;847;48.058;7.810;2024-03-06T11:41:59;8.40;99.00
1700;DHT22;847;48.058;7.810;2024-03-06T11:44:27;8.40;99.00
1700;DHT22;847;48.058;7.810;2024-03-06T11:46:58;8.50;99.00
1700;DHT22;847;48.058;7.810;2024-03-06T11:49:26;8.50;99.00
1700;DHT22;847;48.058;7.810;2024-03-06T11:51:55;8.50;99.00
1700;DHT22;847;48.058;7.810;2024-03-06T11:54:24;8.50;99.00
1700;DHT22;847;48.058;7.810;2024-03-06T11:56:54;8.50;99.00
1700;DHT22;847;48.058;7.810;2024-03-06T11:59:21;8.50;99.00
1700;DHT22;847;48.058;7.810;2024-03-06T12:01:49;8.40;99.00
1700;DHT22;847;48.058;7.810;2024-03-06T12:04:16;8.40;99.00
1700;DHT22;847;48.058;7.810;2024-03-06T12:06:43;8.40;99.00
1700;DHT22;847;48.058;7.810;2024-03-06T12:09:10;8.50;99.00
1700;DHT22;847;48.058;7.810;2024-03-06T12:11:39;8.50;99.00
1700;DHT22;847;48.058;7.810;2024-03-06T12:14:06;8.50;99.00
1700;DHT22;847;48.058;7.810;2024-03-06T12:16:35;8.50;99.00
1700;DHT22;847;48.058;7.810;2024-03-06T12:19:02;8.60;99.00
1700;DHT22;847;48.058;7.810;2024-03-06T12:21:30;8.70;99.00
1700;DHT22;847;48.058;7.810;2024-03-06T12:24:04;8.80;99.00
1700;DHT22;847;48.058;7.810;2024-03-06T12:26:31;8.90;99.00
1700;DHT22;847;48.058;7.810;2024-03-06T12:29:07;8.90;99.00
1700;DHT22;847;48.058;7.810;2024-03-06T12:31:35;9.00;99.00
1700;DHT22;847;48.058;7.810;2024-03-06T12:34:02;9.00;99.00
1700;DHT22;847;48.058;7.810;2024-03-06T12:36:30;8.90;99.00
1700;DHT22;847;48.058;7.810;2024-03-06T12:38:59;8.90;99.00
1700;DHT22;847;48.058;7.810;2024-03-06T12:41:27;9.00;99.00
1700;DHT22;847;48.058;7.810;2024-03-06T12:43:54;9.00;99.00
1700;DHT22;847;48.058;7.810;2024-03-06T12:46:23;9.00;99.00
1700;DHT22;847;48.058;7.810;2024-03-06T12:48:52;9.00;98.50
1700;DHT22;847;48.058;7.810;2024-03-06T12:51:18;9.00;98.60
1700;DHT22;847;48.058;7.810;2024-03-06T12:53:45;9.00;99.00
1700;DHT22;847;48.058;7.810;2024-03-06T12:56:13;9.10;99.00
1700;DHT22;847;48.058;7.810;2024-03-06T12:58:40;9.10;99.00
1700;DHT22;847;48.058;7.810;2024-03-06T13:01:07;9.20;99.00
1700;DHT22;847;48.058;7.810;2024-03-06T13:03:35;9.20;99.00
1700;DHT22;847;48.058;7.810;2024-03-06T13:06:03;9.20;98.70
1700;DHT22;847;48.058;7.810;2024-03-06T13:08:30;9.20;98.30
1700;DHT22;847;48.058;7.810;2024-03-06T13:10:57;9.20;99.00
1700;DHT22;847;48.058;7.810;2024-03-06T13:13:24;9.20;98.50
1700;DHT22;847;48.058;7.810;2024-03-06T13:15:51;9.20;98.90
1700;DHT22;847;48.058;7.810;2024-03-06T13:18:18;9.20;99.00
1700;DHT22;847;48.058;7.810;2024-03-06T13:20:46;9.20;99.00
1700;DHT22;847;48.058;7.810;2024-03-06T13:23:14;9.20;99.00
1700;DHT22;847;48.058;7.810;2024-03-06T13:25:41;9.20;98.80
1700;DHT22;847;48.058;7.810;2024-03-06T13:28:09;9.20;99.00
1700;DHT22;847;48.058;7.810;2024-03-06T13:30:36;9.20;99.00
1700;DHT22;847;48.058;7.810;2024-03-06T13:33:07;9.30;99.00
1700;DHT22;847;48.058;7.810;2024-03-06T13:35:34;9.30;99.00
1700;DHT22;847;48.058;7.810;2024-03-06T13:38:02;9.40;99.00
1700;DHT22;847;48.058;7.810;2024-03-06T13:40:29;9.40;99.00
1700;DHT22;847;48.058;7.810;2024-03-06T13:42:56;9.40;99.00
1700;DHT22;847;48.058;7.810;2024-03-06T13:45:24;9.40;99.00
1700;DHT22;847;48.058;7.810;2024-03-06T13:47:52;9.50;99.00
1700;DHT22;847;48.058;7.810;2024-03-06T13:50:19;9.40;99.00
1700;DHT22;847;48.058;7.810;2024-03-06T13:52:47;9.30;99.00
1700;DHT22;847;48.058;7.810;2024-03-06T13:55:16;9.30;99.00
1700;DHT22;847;48.058;7.810;2024-03-06T13:57:43;9.30;99.00
1700;DHT22;847;48.058;7.810;2024-03-06T14:00:11;9.20;99.00
1700;DHT22;847;48.058;7.810;2024-03-06T14:02:43;9.30;99.00
1700;DHT22;847;48.058;7.810;2024-03-06T14:05:11;9.30;99.00
1700;DHT22;847;48.058;7.810;2024-03-06T14:07:39;9.40;99.00
1700;DHT22;847;48.058;7.810;2024-03-06T14:10:07;9.40;99.00
1700;DHT22;847;48.058;7.810;2024-03-06T14:12:36;9.30;98.70
1700;DHT22;847;48.058;7.810;2024-03-06T14:15:04;9.40;99.00
1700;DHT22;847;48.058;7.810;2024-03-06T14:17:31;9.40;99.00
1700;DHT22;847;48.058;7.810;2024-03-06T14:19:57;9.40;99.00
1700;DHT22;847;48.058;7.810;2024-03-06T14:22:24;9.40;97.00
1700;DHT22;847;48.058;7.810;2024-03-06T14:24:51;9.30;97.50
1700;DHT22;847;48.058;7.810;2024-03-06T14:27:18;9.40;97.50
1700;DHT22;847;48.058;7.810;2024-03-06T14:29:47;9.40;97.30
1700;DHT22;847;48.058;7.810;2024-03-06T14:32:19;9.40;98.00
1700;DHT22;847;48.058;7.810;2024-03-06T14:34:47;9.40;97.80
1700;DHT22;847;48.058;7.810;2024-03-06T14:37:14;9.40;97.60
1700;DHT22;847;48.058;7.810;2024-03-06T14:39:40;9.40;96.10
1700;DHT22;847;48.058;7.810;2024-03-06T14:42:07;9.40;96.70
1700;DHT22;847;48.058;7.810;2024-03-06T14:44:34;9.40;96.70
1700;DHT22;847;48.058;7.810;2024-03-06T14:47:03;9.40;96.60
1700;DHT22;847;48.058;7.810;2024-03-06T14:49:31;9.40;96.90
1700;DHT22;847;48.058;7.810;2024-03-06T14:54:33;9.30;96.80
1700;DHT22;847;48.058;7.810;2024-03-06T14:57:00;9.30;97.40
1700;DHT22;847;48.058;7.810;2024-03-06T14:59:27;9.30;97.80
1700;DHT22;847;48.058;7.810;2024-03-06T15:01:53;9.20;96.20
1700;DHT22;847;48.058;7.810;2024-03-06T15:04:22;9.20;97.40
1700;DHT22;847;48.058;7.810;2024-03-06T15:06:49;9.20;97.70
1700;DHT22;847;48.058;7.810;2024-03-06T15:09:16;9.20;98.40
1700;DHT22;847;48.058;7.810;2024-03-06T15:11:47;9.20;98.40
1700;DHT22;847;48.058;7.810;2024-03-06T15:14:14;9.20;98.90
1700;DHT22;847;48.058;7.810;2024-03-06T15:16:41;9.20;99.00
1700;DHT22;847;48.058;7.810;2024-03-06T15:19:08;9.10;99.00
1700;DHT22;847;48.058;7.810;2024-03-06T15:21:36;9.10;99.00
1700;DHT22;847;48.058;7.810;2024-03-06T15:24:04;9.10;99.00
1700;DHT22;847;48.058;7.810;2024-03-06T15:26:30;9.10;99.00
1700;DHT22;847;48.058;7.810;2024-03-06T15:28:57;9.10;99.00
1700;DHT22;847;48.058;7.810;2024-03-06T15:31:25;9.10;99.00
1700;DHT22;847;48.058;7.810;2024-03-06T15:33:52;9.10;99.00
1700;DHT22;847;48.058;7.810;2024-03-06T15:36:18;9.10;99.00
1700;DHT22;847;48.058;7.810;2024-03-06T15:38:47;9.10;99.00
1700;DHT22;847;48.058;7.810;2024-03-06T15:41:14;9.10;99.00
1700;DHT22;847;48.058;7.810;2024-03-06T15:43:43;9.00;99.00
1700;DHT22;847;48.058;7.810;2024-03-06T15:46:10;9.00;99.00
1700;DHT22;847;48.058;7.810;2024-03-06T15:48:37;9.00;99.00
1700;DHT22;847;48.058;7.810;2024-03-06T15:51:04;9.00;99.00
1700;DHT22;847;48.058;7.810;2024-03-06T15:53:31;9.00;99.00
1700;DHT22;847;48.058;7.810;2024-03-06T15:55:59;9.00;99.00
1700;DHT22;847;48.058;7.810;2024-03-06T15:58:26;8.90;99.00
1700;DHT22;847;48.058;7.810;2024-03-06T16:00:53;9.00;99.00
1700;DHT22;847;48.058;7.810;2024-03-06T16:03:21;9.00;99.00
1700;DHT22;847;48.058;7.810;2024-03-06T16:05:48;9.00;99.00
1700;DHT22;847;48.058;7.810;2024-03-06T16:08:16;8.80;99.00
1700;DHT22;847;48.058;7.810;2024-03-06T16:10:45;8.80;99.00
1700;DHT22;847;48.058;7.810;2024-03-06T16:13:15;8.80;99.00
1700;DHT22;847;48.058;7.810;2024-03-06T16:15:43;8.80;99.00
1700;DHT22;847;48.058;7.810;2024-03-06T16:18:12;8.80;99.00
1700;DHT22;847;48.058;7.810;2024-03-06T16:20:40;8.80;99.00
1700;DHT22;847;48.058;7.810;2024-03-06T16:23:08;8.80;99.00
1700;DHT22;847;48.058;7.810;2024-03-06T16:25:37;8.80;99.00
1700;DHT22;847;48.058;7.810;2024-03-06T16:28:06;8.70;99.00
1700;DHT22;847;48.058;7.810;2024-03-06T16:30:36;8.70;99.00
1700;DHT22;847;48.058;7.810;2024-03-06T16:33:04;8.60;99.00
1700;DHT22;847;48.058;7.810;2024-03-06T16:35:31;8.60;99.00
1700;DHT22;847;48.058;7.810;2024-03-06T16:38:03;8.60;99.00
1700;DHT22;847;48.058;7.810;2024-03-06T16:40:32;8.70;99.00
1700;DHT22;847;48.058;7.810;2024-03-06T16:42:58;8.60;99.00
1700;DHT22;847;48.058;7.810;2024-03-06T16:45:25;8.60;99.00
1700;DHT22;847;48.058;7.810;2024-03-06T16:47:54;8.60;99.00
1700;DHT22;847;48.058;7.810;2024-03-06T16:50:25;8.60;99.00
1700;DHT22;847;48.058;7.810;2024-03-06T16:52:53;8.60;99.00
1700;DHT22;847;48.058;7.810;2024-03-06T16:55:20;8.60;99.00
1700;DHT22;847;48.058;7.810;2024-03-06T16:57:46;8.60;99.00
1700;DHT22;847;48.058;7.810;2024-03-06T17:00:14;8.60;99.00
1700;DHT22;847;48.058;7.810;2024-03-06T17:02:43;8.60;99.00
1700;DHT22;847;48.058;7.810;2024-03-06T17:05:11;8.50;99.00
1700;DHT22;847;48.058;7.810;2024-03-06T17:07:38;8.50;99.00
1700;DHT22;847;48.058;7.810;2024-03-06T17:10:07;8.50;99.00
1700;DHT22;847;48.058;7.810;2024-03-06T17:12:34;8.50;99.00
1700;DHT22;847;48.058;7.810;2024-03-06T17:15:01;8.40;99.00
1700;DHT22;847;48.058;7.810;2024-03-06T17:17:28;8.40;99.00
1700;DHT22;847;48.058;7.810;2024-03-06T17:19:54;8.40;99.00
1700;DHT22;847;48.058;7.810;2024-03-06T17:22:22;8.40;99.00
1700;DHT22;847;48.058;7.810;2024-03-06T17:24:49;8.30;99.00
1700;DHT22;847;48.058;7.810;2024-03-06T17:27:17;8.30;99.00
1700;DHT22;847;48.058;7.810;2024-03-06T17:29:44;8.30;99.00
1700;DHT22;847;48.058;7.810;2024-03-06T17:32:11;8.20;99.00
1700;DHT22;847;48.058;7.810;2024-03-06T17:34:38;8.20;99.00
1700;DHT22;847;48.058;7.810;2024-03-06T17:37:04;8.20;99.00
1700;DHT22;847;48.058;7.810;2024-03-06T17:39:34;8.20;99.00
1700;DHT22;847;48.058;7.810;2024-03-06T17:42:01;8.20;99.00
1700;DHT22;847;48.058;7.810;2024-03-06T17:44:29;8.10;99.00
1700;DHT22;847;48.058;7.810;2024-03-06T17:46:56;8.00;99.00
1700;DHT22;847;48.058;7.810;2024-03-06T17:51:58;7.70;99.00
1700;DHT22;847;48.058;7.810;2024-03-06T17:54:26;7.70;99.00
1700;DHT22;847;48.058;7.810;2024-03-06T17:56:55;7.70;99.00
1700;DHT22;847;48.058;7.810;2024-03-06T18:01:59;7.70;99.00
1700;DHT22;847;48.058;7.810;2024-03-06T18:04:27;7.70;99.00
1700;DHT22;847;48.058;7.810;2024-03-06T18:14:41;7.70;99.00
1700;DHT22;847;48.058;7.810;2024-03-06T18:17:08;7.80;99.00
1700;DHT22;847;48.058;7.810;2024-03-06T18:19:35;7.80;99.00
1700;DHT22;847;48.058;7.810;2024-03-06T18:22:05;7.80;99.00
1700;DHT22;847;48.058;7.810;2024-03-06T18:24:32;7.80;99.00
1700;DHT22;847;48.058;7.810;2024-03-06T18:26:59;7.90;99.00
1700;DHT22;847;48.058;7.810;2024-03-06T18:29:26;7.90;99.00
1700;DHT22;847;48.058;7.810;2024-03-06T18:31:55;7.90;99.00
1700;DHT22;847;48.058;7.810;2024-03-06T18:34:23;7.90;99.00
1700;DHT22;847;48.058;7.810;2024-03-06T18:39:32;7.90;99.00
1700;DHT22;847;48.058;7.810;2024-03-06T18:41:59;7.90;99.00
1700;DHT22;847;48.058;7.810;2024-03-06T18:44:27;7.80;99.00
1700;DHT22;847;48.058;7.810;2024-03-06T18:46:57;7.80;99.00
1700;DHT22;847;48.058;7.810;2024-03-06T18:49:23;7.80;99.00
1700;DHT22;847;48.058;7.810;2024-03-06T18:51:51;7.80;99.00
1700;DHT22;847;48.058;7.810;2024-03-06T18:54:18;7.80;99.00
1700;DHT22;847;48.058;7.810;2024-03-06T18:56:45;7.80;99.00
1700;DHT22;847;48.058;7.810;2024-03-06T18:59:16;7.80;99.00
1700;DHT22;847;48.058;7.810;2024-03-06T19:07:16;7.80;99.00
1700;DHT22;847;48.058;7.810;2024-03-06T19:09:44;7.80;99.00
1700;DHT22;847;48.058;7.810;2024-03-06T19:12:12;7.80;99.00
1700;DHT22;847;48.058;7.810;2024-03-06T19:14:39;7.80;99.00
1700;DHT22;847;48.058;7.810;2024-03-06T19:17:27;7.80;99.00
1700;DHT22;847;48.058;7.810;2024-03-06T19:19:53;7.70;99.00
1700;DHT22;847;48.058;7.810;2024-03-06T19:22:23;7.80;99.00
1700;DHT22;847;48.058;7.810;2024-03-06T19:25:19;7.80;99.00
1700;DHT22;847;48.058;7.810;2024-03-06T19:27:51;7.80;99.00
1700;DHT22;847;48.058;7.810;2024-03-06T19:30:18;7.80;99.00
1700;DHT22;847;48.058;7.810;2024-03-06T19:32:46;7.80;99.00
1700;DHT22;847;48.058;7.810;2024-03-06T19:35:13;7.80;99.00
1700;DHT22;847;48.058;7.810;2024-03-06T19:37:43;7.70;99.00
1700;DHT22;847;48.058;7.810;2024-03-06T19:40:11;7.70;99.00
1700;DHT22;847;48.058;7.810;2024-03-06T19:42:39;7.60;99.00
1700;DHT22;847;48.058;7.810;2024-03-06T19:45:09;7.70;99.00
1700;DHT22;847;48.058;7.810;2024-03-06T19:47:46;7.70;99.00
1700;DHT22;847;48.058;7.810;2024-03-06T19:50:16;7.60;99.00
1700;DHT22;847;48.058;7.810;2024-03-06T19:52:46;7.50;99.00
1700;DHT22;847;48.058;7.810;2024-03-06T20:00:27;7.40;99.00
1700;DHT22;847;48.058;7.810;2024-03-06T20:02:56;7.50;99.00
1700;DHT22;847;48.058;7.810;2024-03-06T20:05:31;7.50;99.00
1700;DHT22;847;48.058;7.810;2024-03-06T20:08:00;7.60;99.00
1700;DHT22;847;48.058;7.810;2024-03-06T20:13:20;7.70;99.00
1700;DHT22;847;48.058;7.810;2024-03-06T20:15:47;7.60;99.00
1700;DHT22;847;48.058;7.810;2024-03-06T20:18:21;7.60;99.00
1700;DHT22;847;48.058;7.810;2024-03-06T20:20:53;7.60;99.00
1700;DHT22;847;48.058;7.810;2024-03-06T20:26:03;7.60;99.00
1700;DHT22;847;48.058;7.810;2024-03-06T20:36:30;7.60;99.00
1700;DHT22;847;48.058;7.810;2024-03-06T20:38:57;7.50;99.00
1700;DHT22;847;48.058;7.810;2024-03-06T21:24:03;7.40;99.00
1700;DHT22;847;48.058;7.810;2024-03-06T22:29:36;7.40;99.00
1700;DHT22;847;48.058;7.810;2024-03-06T22:42:40;7.30;99.00
